sensor_id;sensor_type;location;lat;lon;timestamp;P1;durP1;ratioP1;P2;durP2;ratioP2
5351;SDS011;2698;51.454;6.736;2023-02-18T00:00:56;27.20;;;16.43;;
5351;SDS011;2698;51.454;6.736;2023-02-18T00:03:23;32.00;;;17.00;;
5351;SDS011;2698;51.454;6.736;2023-02-18T00:05:50;27.10;;;18.40;;
5351;SDS011;2698;51.454;6.736;2023-02-18T00:08:17;19.67;;;16.27;;
5351;SDS011;2698;51.454;6.736;2023-02-18T00:10:44;21.57;;;17.67;;
5351;SDS011;2698;51.454;6.736;2023-02-18T00:13:12;22.70;;;17.60;;
5351;SDS011;2698;51.454;6.736;2023-02-18T00:15:39;23.07;;;16.70;;
5351;SDS011;2698;51.454;6.736;2023-02-18T00:18:07;25.47;;;19.57;;
5351;SDS011;2698;51.454;6.736;2023-02-18T00:20:37;20.20;;;17.93;;
5351;SDS011;2698;51.454;6.736;2023-02-18T00:23:04;22.40;;;17.73;;
5351;SDS011;2698;51.454;6.736;2023-02-18T00:25:31;18.77;;;16.77;;
5351;SDS011;2698;51.454;6.736;2023-02-18T00:27:58;23.90;;;18.30;;
5351;SDS011;2698;51.454;6.736;2023-02-18T00:30:25;29.43;;;18.50;;
5351;SDS011;2698;51.454;6.736;2023-02-18T00:32:53;21.47;;;18.00;;
5351;SDS011;2698;51.454;6.736;2023-02-18T00:35:21;26.90;;;19.07;;
5351;SDS011;2698;51.454;6.736;2023-02-18T00:37:49;20.37;;;16.97;;
5351;SDS011;2698;51.454;6.736;2023-02-18T00:40:17;26.40;;;17.77;;
5351;SDS011;2698;51.454;6.736;2023-02-18T00:42:44;21.73;;;18.47;;
5351;SDS011;2698;51.454;6.736;2023-02-18T00:45:12;22.37;;;17.70;;
5351;SDS011;2698;51.454;6.736;2023-02-18T00:47:39;23.40;;;18.50;;
5351;SDS011;2698;51.454;6.736;2023-02-18T00:50:06;21.80;;;18.43;;
5351;SDS011;2698;51.454;6.736;2023-02-18T00:52:35;22.87;;;18.17;;
5351;SDS011;2698;51.454;6.736;2023-02-18T00:55:02;29.50;;;20.23;;
5351;SDS011;2698;51.454;6.736;2023-02-18T00:57:30;21.73;;;17.80;;
5351;SDS011;2698;51.454;6.736;2023-02-18T00:59:57;23.73;;;17.90;;
5351;SDS011;2698;51.454;6.736;2023-02-18T01:02:24;24.40;;;18.70;;
5351;SDS011;2698;51.454;6.736;2023-02-18T01:04:51;24.23;;;18.77;;
5351;SDS011;2698;51.454;6.736;2023-02-18T01:07:18;25.80;;;19.30;;
5351;SDS011;2698;51.454;6.736;2023-02-18T01:09:47;25.13;;;19.27;;
5351;SDS011;2698;51.454;6.736;2023-02-18T01:12:14;23.33;;;18.20;;
5351;SDS011;2698;51.454;6.736;2023-02-18T01:14:42;20.70;;;17.40;;
5351;SDS011;2698;51.454;6.736;2023-02-18T01:17:09;26.63;;;20.27;;
5351;SDS011;2698;51.454;6.736;2023-02-18T01:19:36;29.53;;;18.53;;
5351;SDS011;2698;51.454;6.736;2023-02-18T01:22:04;26.03;;;20.77;;
5351;SDS011;2698;51.454;6.736;2023-02-18T01:24:31;28.60;;;19.03;;
5351;SDS011;2698;51.454;6.736;2023-02-18T01:27:00;28.33;;;20.10;;
5351;SDS011;2698;51.454;6.736;2023-02-18T01:29:27;25.00;;;19.23;;
5351;SDS011;2698;51.454;6.736;2023-02-18T01:31:54;30.90;;;19.07;;
5351;SDS011;2698;51.454;6.736;2023-02-18T01:34:21;22.87;;;17.20;;
5351;SDS011;2698;51.454;6.736;2023-02-18T01:36:48;26.83;;;18.70;;
5351;SDS011;2698;51.454;6.736;2023-02-18T01:39:16;28.93;;;19.23;;
5351;SDS011;2698;51.454;6.736;2023-02-18T01:41:43;22.77;;;18.30;;
5351;SDS011;2698;51.454;6.736;2023-02-18T01:44:15;23.67;;;18.10;;
5351;SDS011;2698;51.454;6.736;2023-02-18T01:46:42;24.90;;;16.90;;
5351;SDS011;2698;51.454;6.736;2023-02-18T01:49:10;22.63;;;17.27;;
5351;SDS011;2698;51.454;6.736;2023-02-18T01:51:38;27.77;;;17.10;;
5351;SDS011;2698;51.454;6.736;2023-02-18T01:54:08;25.40;;;18.20;;
5351;SDS011;2698;51.454;6.736;2023-02-18T01:56:36;18.73;;;15.67;;
5351;SDS011;2698;51.454;6.736;2023-02-18T01:59:06;21.40;;;15.70;;
5351;SDS011;2698;51.454;6.736;2023-02-18T02:01:36;19.10;;;15.30;;
5351;SDS011;2698;51.454;6.736;2023-02-18T02:04:04;19.40;;;15.60;;
5351;SDS011;2698;51.454;6.736;2023-02-18T02:06:31;17.87;;;15.10;;
5351;SDS011;2698;51.454;6.736;2023-02-18T02:08:59;16.77;;;13.73;;
5351;SDS011;2698;51.454;6.736;2023-02-18T02:11:33;17.03;;;13.53;;
5351;SDS011;2698;51.454;6.736;2023-02-18T02:14:15;17.37;;;13.30;;
5351;SDS011;2698;51.454;6.736;2023-02-18T02:16:46;19.60;;;14.00;;
5351;SDS011;2698;51.454;6.736;2023-02-18T02:19:25;17.60;;;12.70;;
5351;SDS011;2698;51.454;6.736;2023-02-18T02:24:45;23.40;;;13.10;;
5351;SDS011;2698;51.454;6.736;2023-02-18T02:27:18;17.20;;;12.77;;
5351;SDS011;2698;51.454;6.736;2023-02-18T02:35:15;15.20;;;12.73;;
5351;SDS011;2698;51.454;6.736;2023-02-18T02:37:43;16.03;;;11.60;;
5351;SDS011;2698;51.454;6.736;2023-02-18T02:40:15;18.87;;;12.83;;
5351;SDS011;2698;51.454;6.736;2023-02-18T02:42:45;15.17;;;12.07;;
5351;SDS011;2698;51.454;6.736;2023-02-18T02:45:15;12.60;;;10.90;;
5351;SDS011;2698;51.454;6.736;2023-02-18T02:47:44;16.67;;;12.53;;
5351;SDS011;2698;51.454;6.736;2023-02-18T02:50:16;16.47;;;10.47;;
5351;SDS011;2698;51.454;6.736;2023-02-18T02:52:48;14.77;;;10.93;;
5351;SDS011;2698;51.454;6.736;2023-02-18T02:55:16;14.47;;;11.30;;
5351;SDS011;2698;51.454;6.736;2023-02-18T02:57:44;13.87;;;12.40;;
5351;SDS011;2698;51.454;6.736;2023-02-18T03:00:13;14.10;;;12.07;;
5351;SDS011;2698;51.454;6.736;2023-02-18T03:02:46;19.40;;;12.27;;
5351;SDS011;2698;51.454;6.736;2023-02-18T03:05:20;14.80;;;11.33;;
5351;SDS011;2698;51.454;6.736;2023-02-18T03:08:02;15.40;;;11.93;;
5351;SDS011;2698;51.454;6.736;2023-02-18T03:10:35;15.10;;;12.50;;
5351;SDS011;2698;51.454;6.736;2023-02-18T03:13:06;18.73;;;13.47;;
5351;SDS011;2698;51.454;6.736;2023-02-18T03:15:36;14.40;;;12.10;;
5351;SDS011;2698;51.454;6.736;2023-02-18T03:18:06;16.50;;;13.90;;
5351;SDS011;2698;51.454;6.736;2023-02-18T03:20:36;16.60;;;12.40;;
5351;SDS011;2698;51.454;6.736;2023-02-18T03:23:06;19.67;;;13.80;;
5351;SDS011;2698;51.454;6.736;2023-02-18T03:25:34;18.90;;;14.07;;
5351;SDS011;2698;51.454;6.736;2023-02-18T03:28:04;18.73;;;13.23;;
5351;SDS011;2698;51.454;6.736;2023-02-18T03:30:34;17.73;;;13.17;;
5351;SDS011;2698;51.454;6.736;2023-02-18T03:33:03;21.57;;;14.60;;
5351;SDS011;2698;51.454;6.736;2023-02-18T03:35:31;19.57;;;15.00;;
5351;SDS011;2698;51.454;6.736;2023-02-18T03:38:00;21.97;;;15.57;;
5351;SDS011;2698;51.454;6.736;2023-02-18T03:40:28;19.40;;;14.77;;
5351;SDS011;2698;51.454;6.736;2023-02-18T03:42:56;19.93;;;14.20;;
5351;SDS011;2698;51.454;6.736;2023-02-18T03:45:23;22.33;;;14.90;;
5351;SDS011;2698;51.454;6.736;2023-02-18T03:47:51;19.97;;;15.00;;
5351;SDS011;2698;51.454;6.736;2023-02-18T03:50:18;19.17;;;14.23;;
5351;SDS011;2698;51.454;6.736;2023-02-18T03:52:45;20.20;;;16.10;;
5351;SDS011;2698;51.454;6.736;2023-02-18T03:55:13;26.03;;;15.10;;
5351;SDS011;2698;51.454;6.736;2023-02-18T03:57:40;22.50;;;14.50;;
5351;SDS011;2698;51.454;6.736;2023-02-18T04:00:08;21.50;;;15.97;;
5351;SDS011;2698;51.454;6.736;2023-02-18T04:02:35;18.70;;;13.87;;
5351;SDS011;2698;51.454;6.736;2023-02-18T04:05:03;17.37;;;13.17;;
5351;SDS011;2698;51.454;6.736;2023-02-18T04:07:30;16.20;;;12.73;;
5351;SDS011;2698;51.454;6.736;2023-02-18T04:09:57;15.90;;;12.90;;
5351;SDS011;2698;51.454;6.736;2023-02-18T04:12:25;18.13;;;12.27;;
5351;SDS011;2698;51.454;6.736;2023-02-18T04:14:52;16.40;;;11.53;;
5351;SDS011;2698;51.454;6.736;2023-02-18T04:17:20;18.00;;;11.70;;
5351;SDS011;2698;51.454;6.736;2023-02-18T04:19:47;14.30;;;10.90;;
5351;SDS011;2698;51.454;6.736;2023-02-18T04:22:14;15.10;;;11.47;;
5351;SDS011;2698;51.454;6.736;2023-02-18T04:24:41;16.53;;;11.80;;
5351;SDS011;2698;51.454;6.736;2023-02-18T04:27:08;14.10;;;10.97;;
5351;SDS011;2698;51.454;6.736;2023-02-18T04:29:37;19.50;;;12.20;;
5351;SDS011;2698;51.454;6.736;2023-02-18T04:32:04;18.00;;;12.00;;
5351;SDS011;2698;51.454;6.736;2023-02-18T04:34:31;13.47;;;10.20;;
5351;SDS011;2698;51.454;6.736;2023-02-18T04:36:58;10.93;;;9.70;;
5351;SDS011;2698;51.454;6.736;2023-02-18T04:39:25;13.67;;;10.07;;
5351;SDS011;2698;51.454;6.736;2023-02-18T04:41:52;11.07;;;9.43;;
5351;SDS011;2698;51.454;6.736;2023-02-18T04:44:20;10.23;;;8.90;;
5351;SDS011;2698;51.454;6.736;2023-02-18T04:46:48;13.10;;;8.97;;
5351;SDS011;2698;51.454;6.736;2023-02-18T04:49:15;20.37;;;9.10;;
5351;SDS011;2698;51.454;6.736;2023-02-18T04:51:42;11.47;;;8.10;;
5351;SDS011;2698;51.454;6.736;2023-02-18T04:54:09;12.57;;;7.57;;
5351;SDS011;2698;51.454;6.736;2023-02-18T04:56:37;8.77;;;6.03;;
5351;SDS011;2698;51.454;6.736;2023-02-18T04:59:04;9.93;;;6.53;;
5351;SDS011;2698;51.454;6.736;2023-02-18T05:01:31;8.57;;;6.30;;
5351;SDS011;2698;51.454;6.736;2023-02-18T05:03:59;7.90;;;6.63;;
5351;SDS011;2698;51.454;6.736;2023-02-18T05:06:26;7.63;;;5.93;;
5351;SDS011;2698;51.454;6.736;2023-02-18T05:08:53;5.83;;;5.13;;
5351;SDS011;2698;51.454;6.736;2023-02-18T05:11:20;8.70;;;5.97;;
5351;SDS011;2698;51.454;6.736;2023-02-18T05:13:48;4.90;;;4.50;;
5351;SDS011;2698;51.454;6.736;2023-02-18T05:16:15;5.00;;;4.00;;
5351;SDS011;2698;51.454;6.736;2023-02-18T05:18:42;4.93;;;4.47;;
5351;SDS011;2698;51.454;6.736;2023-02-18T05:21:10;4.63;;;4.23;;
5351;SDS011;2698;51.454;6.736;2023-02-18T05:23:37;4.63;;;4.00;;
5351;SDS011;2698;51.454;6.736;2023-02-18T05:26:05;3.57;;;3.27;;
5351;SDS011;2698;51.454;6.736;2023-02-18T05:28:32;3.40;;;3.20;;
5351;SDS011;2698;51.454;6.736;2023-02-18T05:30:59;4.30;;;2.80;;
5351;SDS011;2698;51.454;6.736;2023-02-18T05:33:26;2.70;;;2.50;;
5351;SDS011;2698;51.454;6.736;2023-02-18T05:35:53;8.80;;;3.20;;
5351;SDS011;2698;51.454;6.736;2023-02-18T05:38:22;3.27;;;3.07;;
5351;SDS011;2698;51.454;6.736;2023-02-18T05:40:49;3.10;;;2.90;;
5351;SDS011;2698;51.454;6.736;2023-02-18T05:43:16;2.93;;;2.67;;
5351;SDS011;2698;51.454;6.736;2023-02-18T05:45:43;2.53;;;2.43;;
5351;SDS011;2698;51.454;6.736;2023-02-18T05:48:11;4.07;;;3.57;;
5351;SDS011;2698;51.454;6.736;2023-02-18T05:50:38;3.77;;;3.47;;
5351;SDS011;2698;51.454;6.736;2023-02-18T05:53:05;7.53;;;3.00;;
5351;SDS011;2698;51.454;6.736;2023-02-18T05:55:34;4.70;;;3.67;;
5351;SDS011;2698;51.454;6.736;2023-02-18T05:58:03;3.43;;;3.23;;
5351;SDS011;2698;51.454;6.736;2023-02-18T06:00:30;3.80;;;3.60;;
5351;SDS011;2698;51.454;6.736;2023-02-18T06:02:57;4.00;;;3.30;;
5351;SDS011;2698;51.454;6.736;2023-02-18T06:05:24;4.47;;;4.07;;
5351;SDS011;2698;51.454;6.736;2023-02-18T06:07:52;3.27;;;3.07;;
5351;SDS011;2698;51.454;6.736;2023-02-18T06:10:19;3.60;;;3.30;;
5351;SDS011;2698;51.454;6.736;2023-02-18T06:12:47;4.60;;;3.10;;
5351;SDS011;2698;51.454;6.736;2023-02-18T06:15:14;4.57;;;3.73;;
5351;SDS011;2698;51.454;6.736;2023-02-18T06:17:41;3.80;;;3.60;;
5351;SDS011;2698;51.454;6.736;2023-02-18T06:20:09;3.90;;;3.57;;
5351;SDS011;2698;51.454;6.736;2023-02-18T06:22:36;7.30;;;3.83;;
5351;SDS011;2698;51.454;6.736;2023-02-18T06:25:03;2.97;;;2.70;;
5351;SDS011;2698;51.454;6.736;2023-02-18T06:27:30;2.90;;;2.70;;
5351;SDS011;2698;51.454;6.736;2023-02-18T06:29:59;3.37;;;3.17;;
5351;SDS011;2698;51.454;6.736;2023-02-18T06:32:26;3.37;;;3.07;;
5351;SDS011;2698;51.454;6.736;2023-02-18T06:34:53;4.40;;;2.90;;
5351;SDS011;2698;51.454;6.736;2023-02-18T06:37:20;2.40;;;2.23;;
5351;SDS011;2698;51.454;6.736;2023-02-18T06:39:47;4.10;;;3.10;;
5351;SDS011;2698;51.454;6.736;2023-02-18T06:42:14;3.33;;;3.03;;
5351;SDS011;2698;51.454;6.736;2023-02-18T06:44:41;4.60;;;4.27;;
5351;SDS011;2698;51.454;6.736;2023-02-18T06:47:10;6.63;;;2.97;;
5351;SDS011;2698;51.454;6.736;2023-02-18T06:49:37;6.30;;;4.30;;
5351;SDS011;2698;51.454;6.736;2023-02-18T06:52:04;5.50;;;4.20;;
5351;SDS011;2698;51.454;6.736;2023-02-18T06:54:32;7.47;;;3.77;;
5351;SDS011;2698;51.454;6.736;2023-02-18T06:57:00;9.17;;;5.33;;
5351;SDS011;2698;51.454;6.736;2023-02-18T06:59:27;4.23;;;3.70;;
5351;SDS011;2698;51.454;6.736;2023-02-18T07:01:54;6.63;;;4.10;;
5351;SDS011;2698;51.454;6.736;2023-02-18T07:04:22;9.27;;;5.50;;
5351;SDS011;2698;51.454;6.736;2023-02-18T07:06:49;6.40;;;4.00;;
5351;SDS011;2698;51.454;6.736;2023-02-18T07:09:17;5.80;;;4.07;;
5351;SDS011;2698;51.454;6.736;2023-02-18T07:11:44;5.60;;;4.17;;
5351;SDS011;2698;51.454;6.736;2023-02-18T07:14:11;4.50;;;3.73;;
5351;SDS011;2698;51.454;6.736;2023-02-18T07:16:38;4.63;;;3.50;;
5351;SDS011;2698;51.454;6.736;2023-02-18T07:19:05;4.10;;;3.60;;
5351;SDS011;2698;51.454;6.736;2023-02-18T07:21:33;4.23;;;3.83;;
5351;SDS011;2698;51.454;6.736;2023-02-18T07:24:00;6.47;;;4.13;;
5351;SDS011;2698;51.454;6.736;2023-02-18T07:26:27;4.40;;;4.00;;
5351;SDS011;2698;51.454;6.736;2023-02-18T07:28:54;4.63;;;3.27;;
5351;SDS011;2698;51.454;6.736;2023-02-18T07:31:22;4.87;;;3.40;;
5351;SDS011;2698;51.454;6.736;2023-02-18T07:33:49;4.50;;;3.40;;
5351;SDS011;2698;51.454;6.736;2023-02-18T07:36:16;4.87;;;3.30;;
5351;SDS011;2698;51.454;6.736;2023-02-18T07:38:44;3.97;;;3.57;;
5351;SDS011;2698;51.454;6.736;2023-02-18T07:41:13;2.70;;;2.50;;
5351;SDS011;2698;51.454;6.736;2023-02-18T07:43:42;2.50;;;2.40;;
5351;SDS011;2698;51.454;6.736;2023-02-18T07:46:09;6.83;;;3.30;;
5351;SDS011;2698;51.454;6.736;2023-02-18T07:48:36;6.17;;;4.60;;
5351;SDS011;2698;51.454;6.736;2023-02-18T07:51:04;7.00;;;3.10;;
5351;SDS011;2698;51.454;6.736;2023-02-18T07:53:31;2.90;;;2.43;;
5351;SDS011;2698;51.454;6.736;2023-02-18T07:56:00;2.17;;;2.07;;
5351;SDS011;2698;51.454;6.736;2023-02-18T07:58:28;2.00;;;1.90;;
5351;SDS011;2698;51.454;6.736;2023-02-18T08:00:56;2.10;;;1.90;;
5351;SDS011;2698;51.454;6.736;2023-02-18T08:03:23;2.73;;;2.10;;
5351;SDS011;2698;51.454;6.736;2023-02-18T08:05:51;2.17;;;2.07;;
5351;SDS011;2698;51.454;6.736;2023-02-18T08:08:19;1.70;;;1.60;;
5351;SDS011;2698;51.454;6.736;2023-02-18T08:10:47;2.00;;;1.90;;
5351;SDS011;2698;51.454;6.736;2023-02-18T08:13:16;2.80;;;2.10;;
5351;SDS011;2698;51.454;6.736;2023-02-18T08:15:43;2.40;;;2.30;;
5351;SDS011;2698;51.454;6.736;2023-02-18T08:18:13;2.53;;;2.17;;
5351;SDS011;2698;51.454;6.736;2023-02-18T08:20:40;3.70;;;2.50;;
5351;SDS011;2698;51.454;6.736;2023-02-18T08:23:08;5.03;;;2.50;;
5351;SDS011;2698;51.454;6.736;2023-02-18T08:25:36;3.83;;;3.17;;
5351;SDS011;2698;51.454;6.736;2023-02-18T08:28:03;4.17;;;2.87;;
5351;SDS011;2698;51.454;6.736;2023-02-18T08:30:31;5.60;;;2.47;;
5351;SDS011;2698;51.454;6.736;2023-02-18T08:32:58;6.67;;;3.13;;
5351;SDS011;2698;51.454;6.736;2023-02-18T08:35:26;10.53;;;2.67;;
5351;SDS011;2698;51.454;6.736;2023-02-18T08:37:53;7.13;;;2.83;;
5351;SDS011;2698;51.454;6.736;2023-02-18T08:40:20;5.80;;;2.90;;
5351;SDS011;2698;51.454;6.736;2023-02-18T08:42:47;6.37;;;3.63;;
5351;SDS011;2698;51.454;6.736;2023-02-18T08:45:14;8.30;;;3.50;;
5351;SDS011;2698;51.454;6.736;2023-02-18T08:47:43;10.53;;;3.43;;
5351;SDS011;2698;51.454;6.736;2023-02-18T08:50:10;14.90;;;3.60;;
5351;SDS011;2698;51.454;6.736;2023-02-18T08:52:38;10.43;;;3.67;;
5351;SDS011;2698;51.454;6.736;2023-02-18T08:55:05;14.40;;;3.97;;
5351;SDS011;2698;51.454;6.736;2023-02-18T08:57:32;15.23;;;4.10;;
5351;SDS011;2698;51.454;6.736;2023-02-18T08:59:59;11.63;;;4.03;;
5351;SDS011;2698;51.454;6.736;2023-02-18T09:02:26;12.90;;;4.20;;
5351;SDS011;2698;51.454;6.736;2023-02-18T09:04:55;11.60;;;3.40;;
5351;SDS011;2698;51.454;6.736;2023-02-18T09:07:22;10.13;;;3.70;;
5351;SDS011;2698;51.454;6.736;2023-02-18T09:09:49;10.90;;;3.90;;
5351;SDS011;2698;51.454;6.736;2023-02-18T09:12:16;17.67;;;3.80;;
5351;SDS011;2698;51.454;6.736;2023-02-18T09:14:45;9.23;;;3.90;;
5351;SDS011;2698;51.454;6.736;2023-02-18T09:17:13;10.40;;;3.87;;
5351;SDS011;2698;51.454;6.736;2023-02-18T09:19:40;12.37;;;3.80;;
5351;SDS011;2698;51.454;6.736;2023-02-18T09:22:08;16.37;;;4.17;;
5351;SDS011;2698;51.454;6.736;2023-02-18T09:24:35;7.07;;;3.00;;
5351;SDS011;2698;51.454;6.736;2023-02-18T09:27:03;15.97;;;4.50;;
5351;SDS011;2698;51.454;6.736;2023-02-18T09:29:30;13.53;;;3.67;;
5351;SDS011;2698;51.454;6.736;2023-02-18T09:31:58;10.80;;;2.93;;
5351;SDS011;2698;51.454;6.736;2023-02-18T09:34:26;10.50;;;4.27;;
5351;SDS011;2698;51.454;6.736;2023-02-18T09:36:53;19.10;;;3.53;;
5351;SDS011;2698;51.454;6.736;2023-02-18T09:39:21;15.90;;;4.10;;
5351;SDS011;2698;51.454;6.736;2023-02-18T09:41:49;24.77;;;5.10;;
5351;SDS011;2698;51.454;6.736;2023-02-18T09:44:17;15.13;;;3.80;;
5351;SDS011;2698;51.454;6.736;2023-02-18T09:46:46;17.17;;;4.63;;
5351;SDS011;2698;51.454;6.736;2023-02-18T09:49:15;11.60;;;3.80;;
5351;SDS011;2698;51.454;6.736;2023-02-18T09:51:42;23.93;;;5.53;;
5351;SDS011;2698;51.454;6.736;2023-02-18T09:54:10;17.87;;;4.57;;
5351;SDS011;2698;51.454;6.736;2023-02-18T09:56:39;16.60;;;3.23;;
5351;SDS011;2698;51.454;6.736;2023-02-18T09:59:09;12.17;;;3.33;;
5351;SDS011;2698;51.454;6.736;2023-02-18T10:01:38;16.00;;;4.80;;
5351;SDS011;2698;51.454;6.736;2023-02-18T10:04:09;14.23;;;3.50;;
5351;SDS011;2698;51.454;6.736;2023-02-18T10:06:38;14.53;;;3.50;;
5351;SDS011;2698;51.454;6.736;2023-02-18T10:09:09;14.73;;;3.63;;
5351;SDS011;2698;51.454;6.736;2023-02-18T10:11:42;13.93;;;3.70;;
5351;SDS011;2698;51.454;6.736;2023-02-18T10:14:13;16.77;;;4.90;;
5351;SDS011;2698;51.454;6.736;2023-02-18T10:16:41;13.73;;;3.93;;
5351;SDS011;2698;51.454;6.736;2023-02-18T10:19:13;8.93;;;3.60;;
5351;SDS011;2698;51.454;6.736;2023-02-18T10:21:42;12.67;;;3.87;;
5351;SDS011;2698;51.454;6.736;2023-02-18T10:24:12;10.53;;;4.27;;
5351;SDS011;2698;51.454;6.736;2023-02-18T10:26:44;18.73;;;4.47;;
5351;SDS011;2698;51.454;6.736;2023-02-18T10:29:12;13.20;;;4.80;;
5351;SDS011;2698;51.454;6.736;2023-02-18T10:31:41;35.97;;;5.07;;
5351;SDS011;2698;51.454;6.736;2023-02-18T10:34:12;12.17;;;4.37;;
5351;SDS011;2698;51.454;6.736;2023-02-18T10:36:41;9.73;;;3.67;;
5351;SDS011;2698;51.454;6.736;2023-02-18T10:39:14;15.83;;;3.53;;
5351;SDS011;2698;51.454;6.736;2023-02-18T10:41:48;16.10;;;3.97;;
5351;SDS011;2698;51.454;6.736;2023-02-18T10:44:20;16.60;;;5.17;;
5351;SDS011;2698;51.454;6.736;2023-02-18T10:46:53;17.37;;;4.43;;
5351;SDS011;2698;51.454;6.736;2023-02-18T10:49:30;13.80;;;4.20;;
5351;SDS011;2698;51.454;6.736;2023-02-18T10:51:58;16.80;;;3.60;;
5351;SDS011;2698;51.454;6.736;2023-02-18T10:54:46;17.80;;;5.57;;
5351;SDS011;2698;51.454;6.736;2023-02-18T10:57:16;12.20;;;4.13;;
5351;SDS011;2698;51.454;6.736;2023-02-18T10:59:45;9.67;;;3.70;;
5351;SDS011;2698;51.454;6.736;2023-02-18T11:02:19;15.20;;;5.03;;
5351;SDS011;2698;51.454;6.736;2023-02-18T11:04:47;12.33;;;4.73;;
5351;SDS011;2698;51.454;6.736;2023-02-18T11:07:15;14.30;;;4.70;;
5351;SDS011;2698;51.454;6.736;2023-02-18T11:09:45;16.13;;;5.27;;
5351;SDS011;2698;51.454;6.736;2023-02-18T11:12:14;14.07;;;5.50;;
5351;SDS011;2698;51.454;6.736;2023-02-18T11:14:44;16.43;;;4.80;;
5351;SDS011;2698;51.454;6.736;2023-02-18T11:17:15;12.03;;;4.30;;
5351;SDS011;2698;51.454;6.736;2023-02-18T11:19:42;14.30;;;5.37;;
5351;SDS011;2698;51.454;6.736;2023-02-18T11:22:13;19.83;;;4.77;;
5351;SDS011;2698;51.454;6.736;2023-02-18T11:24:41;18.83;;;6.00;;
5351;SDS011;2698;51.454;6.736;2023-02-18T11:27:13;13.30;;;4.40;;
5351;SDS011;2698;51.454;6.736;2023-02-18T11:29:45;22.33;;;5.23;;
5351;SDS011;2698;51.454;6.736;2023-02-18T11:32:14;11.73;;;4.50;;
5351;SDS011;2698;51.454;6.736;2023-02-18T11:34:41;7.73;;;4.60;;
5351;SDS011;2698;51.454;6.736;2023-02-18T11:37:11;20.30;;;4.77;;
5351;SDS011;2698;51.454;6.736;2023-02-18T11:39:40;11.17;;;4.60;;
5351;SDS011;2698;51.454;6.736;2023-02-18T11:42:11;11.03;;;4.40;;
5351;SDS011;2698;51.454;6.736;2023-02-18T11:44:39;13.10;;;4.83;;
5351;SDS011;2698;51.454;6.736;2023-02-18T11:47:18;13.43;;;5.13;;
5351;SDS011;2698;51.454;6.736;2023-02-18T11:49:58;8.23;;;4.47;;
5351;SDS011;2698;51.454;6.736;2023-02-18T11:52:26;6.10;;;4.37;;
5351;SDS011;2698;51.454;6.736;2023-02-18T11:55:00;13.57;;;4.10;;
5351;SDS011;2698;51.454;6.736;2023-02-18T11:57:28;15.13;;;4.73;;
5351;SDS011;2698;51.454;6.736;2023-02-18T11:59:56;17.13;;;5.37;;
5351;SDS011;2698;51.454;6.736;2023-02-18T12:02:27;10.17;;;4.20;;
5351;SDS011;2698;51.454;6.736;2023-02-18T12:04:57;13.47;;;5.93;;
5351;SDS011;2698;51.454;6.736;2023-02-18T12:07:27;12.10;;;4.57;;
5351;SDS011;2698;51.454;6.736;2023-02-18T12:09:58;15.70;;;4.73;;
5351;SDS011;2698;51.454;6.736;2023-02-18T12:12:26;11.27;;;5.20;;
5351;SDS011;2698;51.454;6.736;2023-02-18T12:14:55;7.77;;;4.20;;
5351;SDS011;2698;51.454;6.736;2023-02-18T12:20:16;5.43;;;4.03;;
5351;SDS011;2698;51.454;6.736;2023-02-18T12:22:45;12.83;;;4.60;;
5351;SDS011;2698;51.454;6.736;2023-02-18T12:25:19;15.47;;;4.10;;
5351;SDS011;2698;51.454;6.736;2023-02-18T12:27:48;6.67;;;4.40;;
5351;SDS011;2698;51.454;6.736;2023-02-18T12:30:24;10.07;;;5.67;;
5351;SDS011;2698;51.454;6.736;2023-02-18T12:32:55;10.80;;;4.83;;
5351;SDS011;2698;51.454;6.736;2023-02-18T12:35:39;8.73;;;3.97;;
5351;SDS011;2698;51.454;6.736;2023-02-18T12:38:11;7.83;;;4.40;;
5351;SDS011;2698;51.454;6.736;2023-02-18T12:40:50;6.60;;;5.07;;
5351;SDS011;2698;51.454;6.736;2023-02-18T12:43:21;9.47;;;4.53;;
5351;SDS011;2698;51.454;6.736;2023-02-18T12:46:12;10.10;;;5.43;;
5351;SDS011;2698;51.454;6.736;2023-02-18T12:48:45;8.40;;;5.37;;
5351;SDS011;2698;51.454;6.736;2023-02-18T12:51:19;5.80;;;4.93;;
5351;SDS011;2698;51.454;6.736;2023-02-18T12:53:54;16.20;;;4.90;;
5351;SDS011;2698;51.454;6.736;2023-02-18T12:56:28;7.83;;;5.30;;
5351;SDS011;2698;51.454;6.736;2023-02-18T12:58:59;6.47;;;5.60;;
5351;SDS011;2698;51.454;6.736;2023-02-18T13:01:41;13.13;;;5.37;;
5351;SDS011;2698;51.454;6.736;2023-02-18T13:04:19;12.70;;;5.70;;
5351;SDS011;2698;51.454;6.736;2023-02-18T13:07:00;10.13;;;6.03;;
5351;SDS011;2698;51.454;6.736;2023-02-18T13:09:32;8.47;;;5.80;;
5351;SDS011;2698;51.454;6.736;2023-02-18T13:12:02;8.73;;;6.47;;
5351;SDS011;2698;51.454;6.736;2023-02-18T13:14:32;13.37;;;6.47;;
5351;SDS011;2698;51.454;6.736;2023-02-18T13:17:02;7.03;;;6.30;;
5351;SDS011;2698;51.454;6.736;2023-02-18T13:19:30;9.93;;;6.80;;
5351;SDS011;2698;51.454;6.736;2023-02-18T13:22:00;14.10;;;7.20;;
5351;SDS011;2698;51.454;6.736;2023-02-18T13:24:30;13.80;;;6.90;;
5351;SDS011;2698;51.454;6.736;2023-02-18T13:27:00;9.83;;;8.20;;
5351;SDS011;2698;51.454;6.736;2023-02-18T13:29:30;13.13;;;7.97;;
5351;SDS011;2698;51.454;6.736;2023-02-18T13:32:00;14.33;;;8.50;;
5351;SDS011;2698;51.454;6.736;2023-02-18T13:34:33;14.87;;;8.40;;
5351;SDS011;2698;51.454;6.736;2023-02-18T13:37:07;13.40;;;8.90;;
5351;SDS011;2698;51.454;6.736;2023-02-18T13:39:37;12.57;;;8.60;;
5351;SDS011;2698;51.454;6.736;2023-02-18T13:42:11;14.87;;;9.47;;
5351;SDS011;2698;51.454;6.736;2023-02-18T13:44:39;18.73;;;9.90;;
5351;SDS011;2698;51.454;6.736;2023-02-18T13:47:06;15.93;;;10.87;;
5351;SDS011;2698;51.454;6.736;2023-02-18T13:49:36;19.17;;;11.00;;
5351;SDS011;2698;51.454;6.736;2023-02-18T13:52:03;17.97;;;10.77;;
5351;SDS011;2698;51.454;6.736;2023-02-18T13:54:33;19.67;;;11.33;;
5351;SDS011;2698;51.454;6.736;2023-02-18T13:57:02;15.87;;;10.80;;
5351;SDS011;2698;51.454;6.736;2023-02-18T13:59:30;20.90;;;11.30;;
5351;SDS011;2698;51.454;6.736;2023-02-18T14:02:07;19.73;;;12.00;;
5351;SDS011;2698;51.454;6.736;2023-02-18T14:04:50;16.00;;;10.70;;
5351;SDS011;2698;51.454;6.736;2023-02-18T14:07:39;23.50;;;14.17;;
5351;SDS011;2698;51.454;6.736;2023-02-18T14:10:24;18.50;;;11.83;;
5351;SDS011;2698;51.454;6.736;2023-02-18T14:13:18;21.70;;;12.20;;
5351;SDS011;2698;51.454;6.736;2023-02-18T14:15:51;16.70;;;11.60;;
5351;SDS011;2698;51.454;6.736;2023-02-18T14:21:18;26.23;;;11.90;;
5351;SDS011;2698;51.454;6.736;2023-02-18T14:23:56;20.83;;;12.27;;
5351;SDS011;2698;51.454;6.736;2023-02-18T14:26:27;26.13;;;12.87;;
5351;SDS011;2698;51.454;6.736;2023-02-18T14:28:55;26.93;;;12.30;;
5351;SDS011;2698;51.454;6.736;2023-02-18T14:37:22;16.77;;;12.57;;
5351;SDS011;2698;51.454;6.736;2023-02-18T14:39:55;20.47;;;13.27;;
5351;SDS011;2698;51.454;6.736;2023-02-18T14:42:29;25.40;;;13.53;;
5351;SDS011;2698;51.454;6.736;2023-02-18T14:47:48;25.10;;;13.27;;
5351;SDS011;2698;51.454;6.736;2023-02-18T14:50:19;20.23;;;14.57;;
5351;SDS011;2698;51.454;6.736;2023-02-18T14:52:48;25.40;;;12.97;;
5351;SDS011;2698;51.454;6.736;2023-02-18T14:55:17;28.60;;;13.97;;
5351;SDS011;2698;51.454;6.736;2023-02-18T14:57:47;17.27;;;11.27;;
5351;SDS011;2698;51.454;6.736;2023-02-18T15:00:15;22.90;;;13.93;;
5351;SDS011;2698;51.454;6.736;2023-02-18T15:02:43;21.20;;;14.40;;
5351;SDS011;2698;51.454;6.736;2023-02-18T15:05:14;26.03;;;14.00;;
5351;SDS011;2698;51.454;6.736;2023-02-18T15:07:53;21.00;;;13.80;;
5351;SDS011;2698;51.454;6.736;2023-02-18T15:10:20;22.40;;;13.17;;
5351;SDS011;2698;51.454;6.736;2023-02-18T15:12:48;21.00;;;14.60;;
5351;SDS011;2698;51.454;6.736;2023-02-18T15:15:15;23.83;;;14.20;;
5351;SDS011;2698;51.454;6.736;2023-02-18T15:17:43;24.73;;;13.60;;
5351;SDS011;2698;51.454;6.736;2023-02-18T15:20:11;23.27;;;13.73;;
5351;SDS011;2698;51.454;6.736;2023-02-18T15:22:39;29.50;;;14.53;;
5351;SDS011;2698;51.454;6.736;2023-02-18T15:25:08;24.57;;;14.27;;
5351;SDS011;2698;51.454;6.736;2023-02-18T15:27:37;26.10;;;13.67;;
5351;SDS011;2698;51.454;6.736;2023-02-18T15:30:12;22.43;;;13.40;;
5351;SDS011;2698;51.454;6.736;2023-02-18T15:32:44;29.83;;;14.60;;
5351;SDS011;2698;51.454;6.736;2023-02-18T15:35:13;19.70;;;13.63;;